createdAt,value
2022-10-04T00:00:34.518Z,63.94
2022-10-04T00:01:39.000Z,63.43
2022-10-04T00:02:43.507Z,63.66
2022-10-04T00:03:47.789Z,63.47
2022-10-04T00:04:51.996Z,63.8
2022-10-04T00:05:56.261Z,63.83
2022-10-04T00:07:00.446Z,64.18
2022-10-04T00:08:04.660Z,63.7
2022-10-04T00:09:08.892Z,63.86
2022-10-04T00:10:13.098Z,63.89
2022-10-04T00:11:17.318Z,63.76
2022-10-04T00:12:21.551Z,63.85
2022-10-04T00:13:25.784Z,63.66
2022-10-04T00:14:30.231Z,63.89
2022-10-04T00:15:34.488Z,64.16
2022-10-04T00:16:39.006Z,63.65
2022-10-04T00:17:43.278Z,63.76
2022-10-04T00:18:47.502Z,64.25
2022-10-04T00:19:51.733Z,64
2022-10-04T00:20:55.936Z,64.27
2022-10-04T00:22:00.143Z,64.25
2022-10-04T00:23:04.361Z,64.41
2022-10-04T00:24:08.600Z,63.73
2022-10-04T00:25:12.829Z,63.93
2022-10-04T00:26:17.081Z,63.83
2022-10-04T00:27:21.311Z,64.06
2022-10-04T00:28:25.771Z,64.27
2022-10-04T00:29:30.055Z,64.38
2022-10-04T00:30:34.250Z,64.13
2022-10-04T00:31:38.614Z,63.83
2022-10-04T00:32:42.862Z,63.93
2022-10-04T00:33:47.076Z,64.4
2022-10-04T00:34:51.297Z,63.98
2022-10-04T00:35:55.528Z,64.2
2022-10-04T00:36:59.783Z,64.09
2022-10-04T00:38:04.014Z,64.37
2022-10-04T00:39:08.223Z,63.97
2022-10-04T00:40:12.451Z,64.48
2022-10-04T00:41:16.663Z,64.03
2022-10-04T00:42:20.904Z,63.98
2022-10-04T00:43:25.155Z,63.76
2022-10-04T00:44:30.449Z,64.22
2022-10-04T00:45:34.679Z,64.18
2022-10-04T00:46:39.271Z,63.93
2022-10-04T00:47:43.527Z,64.12
2022-10-04T00:48:47.792Z,64.5
2022-10-04T00:49:52.019Z,64
2022-10-04T00:50:56.271Z,64.63
2022-10-04T00:52:00.556Z,63.97
2022-10-04T00:53:04.769Z,63.46
2022-10-04T00:54:09.092Z,63.57
2022-10-04T00:55:13.322Z,64.31
2022-10-04T00:56:17.569Z,64.08
2022-10-04T00:57:21.801Z,63.9
2022-10-04T00:58:26.006Z,63.64
2022-10-04T00:59:30.255Z,63.74
2022-10-04T01:00:34.505Z,63.69
2022-10-04T01:01:38.878Z,63.42
2022-10-04T01:02:43.113Z,64.31
2022-10-04T01:03:47.403Z,63.97
2022-10-04T01:04:51.646Z,64.13
2022-10-04T01:05:55.877Z,63.86
2022-10-04T01:07:00.097Z,64.04
2022-10-04T01:08:04.315Z,64.36
2022-10-04T01:09:08.517Z,64.11
2022-10-04T01:10:12.760Z,64.21
2022-10-04T01:11:16.977Z,63.84
2022-10-04T01:12:21.217Z,64.38
2022-10-04T01:13:25.461Z,64.47
2022-10-04T01:14:30.680Z,64.36
2022-10-04T01:15:35.187Z,64.12
2022-10-04T01:16:39.595Z,64.26
2022-10-04T01:17:43.790Z,63.9
2022-10-04T01:18:48.027Z,63.99
2022-10-04T01:19:52.262Z,63.68
2022-10-04T01:20:56.490Z,64.21
2022-10-04T01:22:00.715Z,64.58
2022-10-04T01:23:04.956Z,64.68
2022-10-04T01:24:09.277Z,64.19
2022-10-04T01:25:13.505Z,64.01
2022-10-04T01:26:17.729Z,64.48
2022-10-04T01:27:21.997Z,63.99
2022-10-04T01:28:26.511Z,64.61
2022-10-04T01:29:30.785Z,63.86
2022-10-04T01:30:34.989Z,63.93
2022-10-04T01:31:39.866Z,63.99
2022-10-04T01:32:46.598Z,63.95
2022-10-04T01:33:50.814Z,64.01
2022-10-04T01:34:55.045Z,63.84
2022-10-04T01:35:59.270Z,63.95
2022-10-04T01:37:03.509Z,63.82
2022-10-04T01:38:07.800Z,63.8
2022-10-04T01:39:12.017Z,63.97
2022-10-04T01:40:16.209Z,64.78
2022-10-04T01:41:20.433Z,64.79
2022-10-04T01:42:24.630Z,64.39
2022-10-04T01:43:28.909Z,64.31
2022-10-04T01:44:33.161Z,64.02
2022-10-04T01:45:37.389Z,64.32
2022-10-04T01:46:41.963Z,63.94
2022-10-04T01:47:46.278Z,64.24
2022-10-04T01:48:50.558Z,64.06
2022-10-04T01:49:54.772Z,64.71
2022-10-04T01:50:58.974Z,64.36
2022-10-04T01:52:03.218Z,64.58
2022-10-04T01:53:07.443Z,63.92
2022-10-04T01:54:11.700Z,64.1
2022-10-04T01:55:15.942Z,64.46
2022-10-04T01:56:20.145Z,63.77
2022-10-04T01:57:24.418Z,64
2022-10-04T01:58:28.692Z,63.91
2022-10-04T01:59:32.955Z,64.01
2022-10-04T02:00:37.178Z,64
2022-10-04T02:01:42.315Z,64.37
2022-10-04T02:02:46.719Z,64.67
2022-10-04T02:03:51.038Z,64.27
2022-10-04T02:04:55.430Z,64.81
2022-10-04T02:05:59.714Z,64.31
2022-10-04T02:07:03.924Z,63.86
2022-10-04T02:08:08.155Z,64.57
2022-10-04T02:09:12.462Z,64.77
2022-10-04T02:10:16.669Z,64.28
2022-10-04T02:11:20.900Z,64.92
2022-10-04T02:12:25.119Z,64.25
2022-10-04T02:13:29.332Z,64.7
2022-10-04T02:14:33.546Z,64.96
2022-10-04T02:15:37.833Z,64.55
2022-10-04T02:16:42.153Z,64.55
2022-10-04T02:17:46.360Z,64.92
2022-10-04T02:18:50.567Z,64.71
2022-10-04T02:19:55.029Z,64.49
2022-10-04T02:20:59.271Z,64.41
2022-10-04T02:22:03.493Z,64.79
2022-10-04T02:23:07.730Z,64.56
2022-10-04T02:24:11.963Z,64.9
2022-10-04T02:25:16.194Z,64.2
2022-10-04T02:26:20.456Z,64.77
2022-10-04T02:27:24.774Z,64.92
2022-10-04T02:28:29.224Z,64.62
2022-10-04T02:29:33.505Z,64.08
2022-10-04T02:30:37.713Z,63.99
2022-10-04T02:31:43.259Z,64.06
2022-10-04T02:32:47.587Z,64.93
2022-10-04T02:33:51.916Z,64.13
2022-10-04T02:34:56.123Z,64.72
2022-10-04T02:36:00.331Z,64.39
2022-10-04T02:37:04.561Z,64.55
2022-10-04T02:38:08.758Z,64.91
2022-10-04T02:39:13.009Z,64.42
2022-10-04T02:40:17.224Z,64.88
2022-10-04T02:41:21.478Z,65.16
2022-10-04T02:42:25.689Z,64.61
2022-10-04T02:43:29.920Z,64.83
2022-10-04T02:44:34.181Z,65.23
2022-10-04T02:45:38.402Z,65.15
2022-10-04T02:46:42.818Z,65.32
2022-10-04T02:47:47.038Z,65.21
2022-10-04T02:48:51.258Z,65.29
2022-10-04T02:49:55.521Z,64.78
2022-10-04T02:50:59.748Z,65.02
2022-10-04T02:52:03.962Z,65.06
2022-10-04T02:53:08.175Z,65.05
2022-10-04T02:54:12.379Z,65.29
2022-10-04T02:55:16.636Z,65.13
2022-10-04T02:56:21.889Z,64.88
2022-10-04T02:57:26.105Z,65.14
2022-10-04T02:58:30.285Z,64.98
2022-10-04T02:59:37.468Z,64.8
2022-10-04T03:00:41.865Z,64.59
2022-10-04T03:01:47.094Z,64.96
2022-10-04T03:02:51.488Z,65.1
2022-10-04T03:03:55.680Z,65.23
2022-10-04T03:04:59.912Z,64.66
2022-10-04T03:06:04.183Z,64.87
2022-10-04T03:07:08.478Z,65.24
2022-10-04T03:08:12.696Z,65.33
2022-10-04T03:09:16.896Z,64.51
2022-10-04T03:10:21.111Z,64.59
2022-10-04T03:11:25.408Z,64.79
2022-10-04T03:12:29.633Z,64.85
2022-10-04T03:13:33.840Z,64.42
2022-10-04T03:14:38.040Z,64.43
2022-10-04T03:15:42.442Z,64.61
2022-10-04T03:16:46.744Z,64.64
2022-10-04T03:17:50.974Z,64.34
2022-10-04T03:18:55.185Z,64.38
2022-10-04T03:19:59.408Z,64.83
2022-10-04T03:21:03.618Z,64.74
2022-10-04T03:22:07.852Z,64.73
2022-10-04T03:23:12.094Z,64.58
2022-10-04T03:24:16.335Z,64.69
2022-10-04T03:25:20.586Z,64.7
2022-10-04T03:26:24.865Z,64.77
2022-10-04T03:27:29.055Z,64.91
2022-10-04T03:28:33.581Z,65.27
2022-10-04T03:29:37.819Z,65.05
2022-10-04T03:30:42.051Z,64.54
2022-10-04T03:31:47.287Z,64.76
2022-10-04T03:32:51.573Z,64.7
2022-10-04T03:33:55.847Z,65.04
2022-10-04T03:35:00.051Z,65.38
2022-10-04T03:36:04.321Z,65.53
2022-10-04T03:37:08.526Z,65.54
2022-10-04T03:38:12.986Z,65.47
2022-10-04T03:39:17.287Z,65.41
2022-10-04T03:40:21.509Z,64.8
2022-10-04T03:41:25.738Z,65.59
2022-10-04T03:42:29.968Z,65.54
2022-10-04T03:43:34.212Z,65.38
2022-10-04T03:44:38.445Z,65.38
2022-10-04T03:45:42.864Z,65.2
2022-10-04T03:46:47.098Z,64.84
2022-10-04T03:47:51.342Z,65.28
2022-10-04T03:48:55.591Z,65.55
2022-10-04T03:49:59.824Z,65.47
2022-10-04T03:51:04.055Z,65.6
2022-10-04T03:52:08.276Z,65.55
2022-10-04T03:53:12.514Z,65.8
2022-10-04T03:54:16.729Z,65.67
2022-10-04T03:55:20.970Z,65.88
2022-10-04T03:56:25.277Z,65.21
2022-10-04T03:57:29.534Z,65.71
2022-10-04T03:58:33.833Z,64.8
2022-10-04T03:59:38.091Z,65.74
2022-10-04T04:00:42.509Z,65.79
2022-10-04T04:01:47.327Z,65.35
2022-10-04T04:02:51.563Z,65.56
2022-10-04T04:03:55.848Z,64.79
2022-10-04T04:05:00.084Z,65.33
2022-10-04T04:06:04.311Z,64.8
2022-10-04T04:07:08.668Z,64.65
2022-10-04T04:08:12.898Z,64.03
2022-10-04T04:09:17.166Z,63.61
2022-10-04T04:10:21.407Z,62.95
2022-10-04T04:11:25.646Z,61.94
2022-10-04T04:12:29.905Z,62.21
2022-10-04T04:13:34.157Z,61.63
2022-10-04T04:14:38.380Z,61.72
2022-10-04T04:15:42.593Z,61.64
2022-10-04T04:16:46.925Z,61.56
2022-10-04T04:17:51.168Z,61.56
2022-10-04T04:18:55.417Z,61.46
2022-10-04T04:20:06.274Z,61.31
2022-10-04T04:21:11.389Z,61.23
2022-10-04T04:22:15.619Z,61.14
2022-10-04T04:23:19.836Z,61.03
2022-10-04T04:24:24.072Z,60.96
2022-10-04T04:25:29.291Z,60.79
2022-10-04T04:26:33.502Z,60.73
2022-10-04T04:27:37.741Z,60.63
2022-10-04T04:28:41.987Z,60.56
2022-10-04T04:29:46.221Z,60.48
2022-10-04T04:30:50.419Z,60.41
2022-10-04T04:31:54.922Z,60.35
2022-10-04T04:32:59.190Z,60.22
2022-10-04T04:34:03.404Z,60.13
2022-10-04T04:35:07.616Z,60.05
2022-10-04T04:36:11.793Z,59.88
2022-10-04T04:37:16.035Z,59.89
2022-10-04T04:38:20.270Z,59.87
2022-10-04T04:39:24.654Z,59.9
2022-10-04T04:40:28.873Z,59.84
2022-10-04T04:41:33.175Z,59.81
2022-10-04T04:42:37.382Z,59.79
2022-10-04T04:43:41.585Z,59.86
2022-10-04T04:44:45.811Z,59.83
2022-10-04T04:46:28.058Z,59.79
2022-10-04T04:47:32.390Z,59.87
2022-10-04T04:48:36.590Z,59.86
2022-10-04T04:49:40.806Z,59.91
2022-10-04T04:50:45.076Z,59.9
2022-10-04T04:51:49.335Z,59.95
2022-10-04T04:52:53.570Z,60
2022-10-04T04:53:57.776Z,60.04
2022-10-04T04:55:02.011Z,60.03
2022-10-04T04:56:12.715Z,60.09
2022-10-04T04:57:17.728Z,60.14
2022-10-04T04:58:21.956Z,60.15
2022-10-04T04:59:26.187Z,60.17
2022-10-04T05:00:30.419Z,60.12
2022-10-04T05:01:34.769Z,60.17
2022-10-04T05:02:39.197Z,60.17
2022-10-04T05:03:43.482Z,60.22
2022-10-04T05:04:47.705Z,60.22
2022-10-04T05:05:51.950Z,60.27
2022-10-04T05:06:56.178Z,60.28
2022-10-04T05:08:00.381Z,60.21
2022-10-04T05:09:04.586Z,60.29
2022-10-04T05:10:08.847Z,60.34
2022-10-04T05:11:13.053Z,60.39
2022-10-04T05:12:17.312Z,60.33
2022-10-04T05:13:21.515Z,60.29
2022-10-04T05:14:25.740Z,60.29
2022-10-04T05:15:30.003Z,60.21
2022-10-04T05:16:34.524Z,60.21
2022-10-04T05:17:38.778Z,60.24
2022-10-04T05:18:42.961Z,60.19
2022-10-04T05:19:47.179Z,60.28
2022-10-04T05:20:51.400Z,60.36
2022-10-04T05:21:55.616Z,60.28
2022-10-04T05:22:59.891Z,60.22
2022-10-04T05:24:04.107Z,60.28
2022-10-04T05:25:08.309Z,60.21
2022-10-04T05:26:12.524Z,60.33
2022-10-04T05:27:16.776Z,60.33
2022-10-04T05:28:21.274Z,60.26
2022-10-04T05:29:25.525Z,60.29
2022-10-04T05:30:29.772Z,60.25
2022-10-04T05:31:34.168Z,60.24
2022-10-04T05:32:38.423Z,60.37
2022-10-04T05:33:42.668Z,60.3
2022-10-04T05:34:46.909Z,60.36
2022-10-04T05:35:51.396Z,60.34
2022-10-04T05:36:55.716Z,60.34
2022-10-04T05:37:59.942Z,60.31
2022-10-04T05:39:04.157Z,60.33
2022-10-04T05:40:08.394Z,60.35
2022-10-04T05:41:12.601Z,60.35
2022-10-04T05:42:16.849Z,60.4
2022-10-04T05:43:21.067Z,60.32
2022-10-04T05:44:25.295Z,60.35
2022-10-04T05:45:29.805Z,60.43
2022-10-04T05:46:34.043Z,60.43
2022-10-04T05:47:38.228Z,60.37
2022-10-04T05:48:42.467Z,60.43
2022-10-04T05:49:46.672Z,60.38
2022-10-04T05:50:50.894Z,60.34
2022-10-04T05:51:55.095Z,60.19
2022-10-04T05:52:59.315Z,60.24
2022-10-04T05:54:03.637Z,60.17
2022-10-04T05:55:07.859Z,60.14
2022-10-04T05:56:12.075Z,60.07
2022-10-04T05:57:16.297Z,59.99
2022-10-04T05:58:20.518Z,59.9
2022-10-04T05:59:24.728Z,59.84
2022-10-04T06:00:29.015Z,59.8
2022-10-04T06:01:33.648Z,59.75
2022-10-04T06:02:38.361Z,59.71
2022-10-04T06:03:42.693Z,59.67
2022-10-04T06:04:49.916Z,59.68
2022-10-04T06:05:54.655Z,59.67
2022-10-04T06:06:58.864Z,59.67
2022-10-04T06:08:03.073Z,59.69
2022-10-04T06:09:07.305Z,59.71
2022-10-04T06:10:11.483Z,59.74
2022-10-04T06:11:15.691Z,59.73
2022-10-04T06:12:20.156Z,59.75
2022-10-04T06:13:24.396Z,59.75
2022-10-04T06:14:28.625Z,59.77
2022-10-04T06:15:32.843Z,59.81
2022-10-04T06:16:37.386Z,59.8
2022-10-04T06:17:41.658Z,59.82
2022-10-04T06:18:45.886Z,59.79
2022-10-04T06:19:50.116Z,59.77
2022-10-04T06:20:54.345Z,59.81
2022-10-04T06:21:58.557Z,59.8
2022-10-04T06:23:02.758Z,59.92
2022-10-04T06:24:06.980Z,59.85
2022-10-04T06:25:11.247Z,59.78
2022-10-04T06:26:15.469Z,59.76
2022-10-04T06:27:19.730Z,59.82
2022-10-04T06:28:24.367Z,59.79
2022-10-04T06:29:28.729Z,59.83
2022-10-04T06:30:33.108Z,59.93
2022-10-04T06:31:37.332Z,59.92
2022-10-04T06:32:41.584Z,59.92
2022-10-04T06:33:45.818Z,60.02
2022-10-04T06:34:50.295Z,59.96
2022-10-04T06:35:54.518Z,59.88
2022-10-04T06:36:58.738Z,59.94
2022-10-04T06:38:02.938Z,59.96
2022-10-04T06:39:07.167Z,60.06
2022-10-04T06:40:11.391Z,60.05
2022-10-04T06:41:15.616Z,60.06
2022-10-04T06:42:19.829Z,60.05
2022-10-04T06:43:24.319Z,60.07
2022-10-04T06:44:28.517Z,60.09
2022-10-04T06:45:32.761Z,60.16
2022-10-04T06:46:37.312Z,60.23
2022-10-04T06:47:41.616Z,60.22
2022-10-04T06:48:45.863Z,60.23
2022-10-04T06:49:50.265Z,60.28
2022-10-04T06:50:54.466Z,60.27
2022-10-04T06:51:58.719Z,60.32
2022-10-04T06:53:02.937Z,60.28
2022-10-04T06:54:07.141Z,60.22
2022-10-04T06:55:11.356Z,60.24
2022-10-04T06:56:15.571Z,60.24
2022-10-04T06:57:19.838Z,60.3
2022-10-04T06:58:24.048Z,60.3
2022-10-04T06:59:28.509Z,60.29
2022-10-04T07:00:32.767Z,60.25
2022-10-04T07:01:37.364Z,60.25
2022-10-04T07:02:41.916Z,60.28
2022-10-04T07:03:52.752Z,60.26
2022-10-04T07:05:12.402Z,60.26
2022-10-04T07:06:16.650Z,60.27
2022-10-04T07:07:20.904Z,60.26
2022-10-04T07:08:25.167Z,60.24
2022-10-04T07:09:29.390Z,60.2
2022-10-04T07:10:33.610Z,60.15
2022-10-04T07:11:37.854Z,60.13
2022-10-04T07:12:42.085Z,60.07
2022-10-04T07:13:46.338Z,59.94
2022-10-04T07:14:50.581Z,59.84
2022-10-04T07:15:54.985Z,59.75
2022-10-04T07:16:59.253Z,59.68
2022-10-04T07:18:03.454Z,59.59
2022-10-04T07:19:07.724Z,59.52
2022-10-04T07:20:12.002Z,59.46
2022-10-04T07:21:16.231Z,59.42
2022-10-04T07:22:20.462Z,59.39
2022-10-04T07:23:30.333Z,59.34
2022-10-04T07:24:34.591Z,59.35
2022-10-04T07:25:38.814Z,59.33
2022-10-04T07:26:43.040Z,59.32
2022-10-04T07:27:47.340Z,59.32
2022-10-04T07:28:51.623Z,59.29
2022-10-04T07:29:55.860Z,59.29
2022-10-04T07:31:00.274Z,59.32
2022-10-04T07:32:04.511Z,59.29
2022-10-04T07:33:08.745Z,59.33
2022-10-04T07:34:13.058Z,59.33
2022-10-04T07:35:17.303Z,59.36
2022-10-04T07:36:23.870Z,59.35
2022-10-04T07:37:28.106Z,59.37
2022-10-04T07:38:32.324Z,59.38
2022-10-04T07:39:36.564Z,59.39
2022-10-04T07:40:40.794Z,59.4
2022-10-04T07:41:46.089Z,59.41
2022-10-04T07:42:50.438Z,59.44
2022-10-04T07:43:54.666Z,59.42
2022-10-04T07:44:58.879Z,59.43
2022-10-04T07:46:03.301Z,59.41
2022-10-04T07:47:07.611Z,59.42
2022-10-04T07:48:11.831Z,59.47
2022-10-04T07:49:16.052Z,59.47
2022-10-04T07:50:22.592Z,59.42
2022-10-04T07:51:26.801Z,59.4
2022-10-04T07:52:31.058Z,59.43
2022-10-04T07:53:35.280Z,59.47
2022-10-04T07:54:39.492Z,59.43
2022-10-04T07:55:43.758Z,59.45
2022-10-04T07:56:48.018Z,59.43
2022-10-04T07:57:52.242Z,59.43
2022-10-04T07:58:56.459Z,59.44
2022-10-04T08:00:00.683Z,59.42
2022-10-04T08:01:04.909Z,59.49
2022-10-04T08:02:09.758Z,59.52
2022-10-04T08:03:14.415Z,59.49
2022-10-04T08:04:18.660Z,59.5
2022-10-04T08:05:23.156Z,59.51
2022-10-04T08:06:27.426Z,59.51
2022-10-04T08:07:31.628Z,59.5
2022-10-04T08:08:35.870Z,59.48
2022-10-04T08:09:40.117Z,59.59
2022-10-04T08:10:44.426Z,59.61
2022-10-04T08:11:48.645Z,59.6
2022-10-04T08:12:52.871Z,59.65
2022-10-04T08:13:57.088Z,59.7
2022-10-04T08:15:01.330Z,59.74
2022-10-04T08:16:05.728Z,59.74
2022-10-04T08:17:16.848Z,59.74
2022-10-04T08:18:21.080Z,59.76
2022-10-04T08:19:25.319Z,59.77
2022-10-04T08:20:30.527Z,59.75
2022-10-04T08:21:34.765Z,59.84
2022-10-04T08:22:38.983Z,59.79
2022-10-04T08:23:43.195Z,59.84
2022-10-04T08:24:54.469Z,59.83
2022-10-04T08:25:58.703Z,59.82
2022-10-04T08:27:02.924Z,59.8
2022-10-04T08:28:07.379Z,59.8
2022-10-04T08:29:11.634Z,59.79
2022-10-04T08:30:15.880Z,59.83
2022-10-04T08:31:20.287Z,59.83
2022-10-04T08:32:24.595Z,59.84
2022-10-04T08:33:28.895Z,59.86
2022-10-04T08:34:33.237Z,59.86
2022-10-04T08:35:37.553Z,59.91
2022-10-04T08:36:43.154Z,59.88
2022-10-04T08:37:47.482Z,59.83
2022-10-04T08:38:51.718Z,59.79
2022-10-04T08:39:56.026Z,59.77
2022-10-04T08:41:00.463Z,59.76
2022-10-04T08:42:04.773Z,59.75
2022-10-04T08:43:09.029Z,59.77
2022-10-04T08:44:13.248Z,59.74
2022-10-04T08:45:17.531Z,59.79
2022-10-04T08:46:22.028Z,59.78
2022-10-04T08:47:26.261Z,59.81
2022-10-04T08:48:30.468Z,59.77
2022-10-04T08:49:34.736Z,59.8
2022-10-04T08:50:38.990Z,59.94
2022-10-04T08:51:43.225Z,59.99
2022-10-04T08:52:47.465Z,60.07
2022-10-04T08:53:51.723Z,60.14
2022-10-04T08:54:55.914Z,60.44
2022-10-04T08:56:00.157Z,60.41
2022-10-04T08:57:04.380Z,60.13
2022-10-04T08:58:08.608Z,60.35
2022-10-04T08:59:12.839Z,60.15
2022-10-04T09:00:17.115Z,61.46
2022-10-04T09:01:21.529Z,61.49
2022-10-04T09:02:25.943Z,61.3
2022-10-04T09:03:30.194Z,60.91
2022-10-04T09:04:34.396Z,60.94
2022-10-04T09:05:38.633Z,60.81
2022-10-04T09:06:44.055Z,60.91
2022-10-04T09:07:48.519Z,60.83
2022-10-04T09:08:52.715Z,60.76
2022-10-04T09:09:56.928Z,60.82
2022-10-04T09:11:01.150Z,60.9
2022-10-04T09:12:05.418Z,60.85
2022-10-04T09:13:09.644Z,60.84
2022-10-04T09:14:13.874Z,60.82
2022-10-04T09:15:18.083Z,61.19
2022-10-04T09:16:22.566Z,61.3
2022-10-04T09:17:26.892Z,61.29
2022-10-04T09:18:31.125Z,61.46
2022-10-04T09:19:35.354Z,61.72
2022-10-04T09:20:41.690Z,61.53
2022-10-04T09:21:45.911Z,61.72
2022-10-04T09:22:50.174Z,61.49
2022-10-04T09:23:54.405Z,61.07
2022-10-04T09:24:58.881Z,61.29
2022-10-04T09:26:03.132Z,61.07
2022-10-04T09:27:07.385Z,61.12
2022-10-04T09:28:11.859Z,61.44
2022-10-04T09:29:16.102Z,61.4
2022-10-04T09:30:20.303Z,61.42
2022-10-04T09:31:24.955Z,61.37
2022-10-04T09:32:29.183Z,61.43
2022-10-04T09:33:33.390Z,61.76
2022-10-04T09:34:39.645Z,61.63
2022-10-04T09:35:43.827Z,61.86
2022-10-04T09:36:48.528Z,61.7
2022-10-04T09:37:52.753Z,61.79
2022-10-04T09:39:31.742Z,61.81
2022-10-04T09:40:35.983Z,61.92
2022-10-04T09:41:40.230Z,62.2
2022-10-04T09:42:44.448Z,62.08
2022-10-04T09:43:48.873Z,62.06
2022-10-04T09:44:53.114Z,62.54
2022-10-04T09:45:57.604Z,62.39
2022-10-04T09:47:02.233Z,62.33
2022-10-04T09:48:06.505Z,62.5
2022-10-04T09:49:10.761Z,62.64
2022-10-04T09:50:15.187Z,62.66
2022-10-04T09:51:19.443Z,62.39
2022-10-04T09:52:23.666Z,62.36
2022-10-04T09:53:27.934Z,62.62
2022-10-04T09:54:32.139Z,62.82
2022-10-04T09:55:36.366Z,62.39
2022-10-04T09:56:40.965Z,62.68
2022-10-04T09:57:46.455Z,62.38
2022-10-04T09:58:50.756Z,62.22
2022-10-04T09:59:54.987Z,62.51
2022-10-04T10:00:59.207Z,62.58
2022-10-04T10:02:03.620Z,62.61
2022-10-04T10:03:14.866Z,62.12
2022-10-04T10:04:19.802Z,62.54
2022-10-04T10:05:24.041Z,62.59
2022-10-04T10:06:28.268Z,62.29
2022-10-04T10:07:32.536Z,62.15
2022-10-04T10:08:36.765Z,62.32
2022-10-04T10:09:40.988Z,62.41
2022-10-04T10:10:45.238Z,62.7
2022-10-04T10:11:49.463Z,62.67
2022-10-04T10:12:53.739Z,62.94
2022-10-04T10:13:57.937Z,62.86
2022-10-04T10:15:02.218Z,62.51
2022-10-04T10:16:06.848Z,62.59
2022-10-04T10:17:11.103Z,62.56
2022-10-04T10:18:15.367Z,62.66
2022-10-04T10:19:19.604Z,62.77
2022-10-04T10:20:23.832Z,62.78
2022-10-04T10:21:28.140Z,62.71
2022-10-04T10:22:32.388Z,62.5
2022-10-04T10:23:36.654Z,62.62
2022-10-04T10:24:40.945Z,62.72
2022-10-04T10:25:45.180Z,62.34
2022-10-04T10:26:49.417Z,62.71
2022-10-04T10:27:53.888Z,62.68
2022-10-04T10:28:59.149Z,62.77
2022-10-04T10:30:03.432Z,62.71
2022-10-04T10:31:07.892Z,62.61
2022-10-04T10:32:12.164Z,62.68
2022-10-04T10:33:16.427Z,62.88
2022-10-04T10:34:20.677Z,62.84
2022-10-04T10:35:24.932Z,62.65
2022-10-04T10:36:31.591Z,62.36
2022-10-04T10:37:35.819Z,60.79
2022-10-04T10:38:40.061Z,60.27
2022-10-04T10:39:44.282Z,60.54
2022-10-04T10:40:48.529Z,60.14
2022-10-04T10:41:52.754Z,59.19
2022-10-04T10:42:57.027Z,59.3
2022-10-04T10:44:02.279Z,59.12
2022-10-04T10:45:06.497Z,58.63
2022-10-04T10:46:10.836Z,58.22
2022-10-04T10:47:15.097Z,57.9
2022-10-04T10:48:19.351Z,57.75
2022-10-04T10:49:24.437Z,57.4
2022-10-04T10:50:28.673Z,57.23
2022-10-04T10:51:32.877Z,57.1
2022-10-04T10:52:37.080Z,56.82
2022-10-04T10:53:41.332Z,56.75
2022-10-04T10:54:45.637Z,56.48
2022-10-04T10:55:49.839Z,56.18
2022-10-04T10:56:54.074Z,56.19
2022-10-04T10:57:58.367Z,55.96
2022-10-04T10:59:02.679Z,55.82
2022-10-04T11:00:06.916Z,55.86
2022-10-04T11:01:11.153Z,55.75
2022-10-04T11:02:15.849Z,55.39
2022-10-04T11:03:32.674Z,54.98
2022-10-04T11:04:37.010Z,55.35
2022-10-04T11:05:41.216Z,55.81
2022-10-04T11:06:46.596Z,55.51
2022-10-04T11:07:51.064Z,55.73
2022-10-04T11:08:55.275Z,55.92
2022-10-04T11:09:59.505Z,55.98
2022-10-04T11:11:03.732Z,55.94
2022-10-04T11:12:08.008Z,56.08
2022-10-04T11:13:12.234Z,56.26
2022-10-04T11:14:16.481Z,56.27
2022-10-04T11:15:20.698Z,56.24
2022-10-04T11:16:25.206Z,56.31
2022-10-04T11:17:29.460Z,56.26
2022-10-04T11:18:33.752Z,56.33
2022-10-04T11:19:37.967Z,56.37
2022-10-04T11:20:42.172Z,56.44
2022-10-04T11:21:46.396Z,56.38
2022-10-04T11:22:50.601Z,56.4
2022-10-04T11:23:54.804Z,56.65
2022-10-04T11:24:59.082Z,56.78
2022-10-04T11:26:03.335Z,56.85
2022-10-04T11:27:07.561Z,56.81
2022-10-04T11:28:12.968Z,56.94
2022-10-04T11:29:17.205Z,56.94
2022-10-04T11:30:21.445Z,57.04
2022-10-04T11:31:25.810Z,57.01
2022-10-04T11:32:30.060Z,57.11
2022-10-04T11:33:34.307Z,57.12
2022-10-04T11:34:38.545Z,57.18
2022-10-04T11:35:42.871Z,57.2
2022-10-04T11:36:48.380Z,57.25
2022-10-04T11:37:52.912Z,57.21
2022-10-04T11:38:57.135Z,57.24
2022-10-04T11:40:01.433Z,57.3
2022-10-04T11:41:05.666Z,57.42
2022-10-04T11:42:09.921Z,57.45
2022-10-04T11:43:14.160Z,57.43
2022-10-04T11:44:18.409Z,57.39
2022-10-04T11:45:22.641Z,57.35
2022-10-04T11:46:27.158Z,57.48
2022-10-04T11:47:31.485Z,57.46
2022-10-04T11:48:35.688Z,57.55
2022-10-04T11:49:39.913Z,57.57
2022-10-04T11:50:44.134Z,57.47
2022-10-04T11:51:48.333Z,57.56
2022-10-04T11:52:52.582Z,57.48
2022-10-04T11:53:56.796Z,57.54
2022-10-04T11:55:02.034Z,57.54
2022-10-04T11:56:06.366Z,57.54
2022-10-04T11:57:10.627Z,57.56
2022-10-04T11:58:14.887Z,57.63
2022-10-04T11:59:19.110Z,57.6
2022-10-04T12:00:23.326Z,57.65
2022-10-04T12:01:27.579Z,57.68
2022-10-04T12:02:31.825Z,57.76
2022-10-04T12:03:36.265Z,57.79
2022-10-04T12:04:40.697Z,57.82
2022-10-04T12:05:45.013Z,57.81
2022-10-04T12:06:49.869Z,57.74
2022-10-04T12:07:54.092Z,57.75
2022-10-04T12:08:58.334Z,57.78
2022-10-04T12:10:03.373Z,57.77
2022-10-04T12:11:07.594Z,57.7
2022-10-04T12:12:11.887Z,57.79
2022-10-04T12:13:16.106Z,57.78
2022-10-04T12:14:20.334Z,57.88
2022-10-04T12:15:24.554Z,57.79
2022-10-04T12:16:29.118Z,57.81
2022-10-04T12:17:33.421Z,57.79
2022-10-04T12:18:37.650Z,57.79
2022-10-04T12:19:41.859Z,57.81
2022-10-04T12:20:46.126Z,57.79
2022-10-04T12:21:50.358Z,57.79
2022-10-04T12:22:54.646Z,57.73
2022-10-04T12:23:58.885Z,57.81
2022-10-04T12:25:03.162Z,57.81
2022-10-04T12:26:07.365Z,57.8
2022-10-04T12:27:11.633Z,57.82
2022-10-04T12:28:16.150Z,57.84
2022-10-04T12:29:20.426Z,57.82
2022-10-04T12:30:24.722Z,57.87
2022-10-04T12:31:29.140Z,57.84
2022-10-04T12:32:33.386Z,57.85
2022-10-04T12:33:37.639Z,57.88
2022-10-04T12:34:41.845Z,57.88
2022-10-04T12:35:46.109Z,57.96
2022-10-04T12:36:50.742Z,57.93
2022-10-04T12:37:54.940Z,57.92
2022-10-04T12:38:59.136Z,57.93
2022-10-04T12:40:03.381Z,57.86
2022-10-04T12:41:07.612Z,57.86
2022-10-04T12:42:11.869Z,57.92
2022-10-04T12:43:16.852Z,57.94
2022-10-04T12:44:21.058Z,57.97
2022-10-04T12:45:25.609Z,57.93
2022-10-04T12:46:30.894Z,57.93
2022-10-04T12:47:35.103Z,57.9
2022-10-04T12:48:39.365Z,57.94
2022-10-04T12:49:43.614Z,57.99
2022-10-04T12:50:47.866Z,57.95
2022-10-04T12:51:52.113Z,57.98
2022-10-04T12:52:56.584Z,57.95
2022-10-04T12:54:00.931Z,58
2022-10-04T12:55:05.147Z,57.97
2022-10-04T12:56:09.410Z,57.97
2022-10-04T12:57:13.639Z,58.01
2022-10-04T12:58:17.891Z,57.98
2022-10-04T12:59:22.149Z,57.97
2022-10-04T13:00:26.399Z,57.95
2022-10-04T13:01:30.906Z,58.05
2022-10-04T13:02:35.446Z,58.03
2022-10-04T13:03:39.744Z,58.01
2022-10-04T13:04:43.980Z,58
2022-10-04T13:05:48.220Z,57.99
2022-10-04T13:06:52.807Z,58.03
2022-10-04T13:07:57.081Z,58.04
2022-10-04T13:09:01.364Z,58.07
2022-10-04T13:10:27.038Z,58.09
2022-10-04T13:11:31.356Z,58.11
2022-10-04T13:12:35.591Z,58.11
2022-10-04T13:13:39.839Z,58.16
2022-10-04T13:14:44.080Z,58.17
2022-10-04T13:18:22.570Z,58.21
2022-10-04T13:19:26.856Z,58.2
2022-10-04T13:20:31.062Z,58.23
2022-10-04T13:21:35.315Z,58.29
2022-10-04T13:22:59.186Z,58.21
2022-10-04T13:24:03.391Z,58.23
2022-10-04T13:25:09.867Z,58.3
2022-10-04T13:26:14.079Z,58.2
2022-10-04T13:27:18.385Z,58.19
2022-10-04T13:28:22.963Z,58.2
2022-10-04T13:29:27.306Z,58.25
2022-10-04T13:30:31.562Z,58.22
2022-10-04T13:31:36.187Z,58.27
2022-10-04T13:32:40.446Z,58.29
2022-10-04T13:33:44.661Z,58.28
2022-10-04T13:34:49.190Z,58.27
2022-10-04T13:35:53.439Z,58.21
2022-10-04T13:36:57.731Z,58.16
2022-10-04T13:38:01.960Z,58.19
2022-10-04T13:39:06.163Z,58.14
2022-10-04T13:40:10.399Z,58.18
2022-10-04T13:41:14.679Z,58.18
2022-10-04T13:42:18.945Z,58.18
2022-10-04T13:43:23.154Z,58.23
2022-10-04T13:44:27.371Z,58.24
2022-10-04T13:45:31.742Z,58.2
2022-10-04T13:46:36.031Z,58.18
2022-10-04T13:47:40.292Z,58.17
2022-10-04T13:48:44.804Z,58.24
2022-10-04T13:49:49.026Z,58.23
2022-10-04T13:50:53.258Z,58.23
2022-10-04T13:51:57.750Z,58.24
2022-10-04T13:53:02.008Z,58.26
2022-10-04T13:54:06.259Z,58.29
2022-10-04T13:55:10.550Z,58.31
2022-10-04T13:56:14.786Z,58.28
2022-10-04T13:57:19.004Z,58.27